Time,TemperatureF,DewpointF,PressureIn,WindDirection,WindDirectionDegrees,WindSpeedMPH,WindSpeedGustMPH,Humidity,HourlyPrecipIn,Conditions,Clouds,dailyrainin,SoftwareType,DateUTC
2013-06-01 00:01:00,68.7,57.3,30.12,NNW,334,0.0,0.0,67,0.00,,CLR,0.00,VWS V14.00,2013-06-01 04:01:00,
2013-06-01 00:02:00,68.7,57.3,30.12,NNW,334,0.0,0.0,67,0.00,,CLR,0.00,VWS V14.00,2013-06-01 04:02:00,
2013-06-01 00:03:00,68.7,57.3,30.12,NNW,334,0.0,0.0,67,0.00,,CLR,0.00,VWS V14.00,2013-06-01 04:03:00,
2013-06-01 00:08:00,68.5,57.1,30.12,NNW,334,0.0,0.0,67,0.00,,CLR,0.00,VWS V14.00,2013-06-01 04:08:00,
2013-06-01 00:13:00,68.3,56.9,30.12,NNW,334,0.0,0.0,67,0.00,,CLR,0.00,VWS V14.00,2013-06-01 04:13:00,
2013-06-01 00:18:00,68.1,56.8,30.12,NNW,334,0.0,0.0,67,0.00,,CLR,0.00,VWS V14.00,2013-06-01 04:18:00,
2013-06-01 00:23:00,67.9,57.0,30.12,NNW,334,0.0,0.0,68,0.00,,CLR,0.00,VWS V14.00,2013-06-01 04:23:00,
2013-06-01 00:28:00,67.7,56.8,30.12,NNW,334,0.0,0.0,68,0.00,,CLR,0.00,VWS V14.00,2013-06-01 04:28:00,
2013-06-01 00:33:00,67.6,57.0,30.12,NNW,334,0.0,0.0,69,0.00,,CLR,0.00,VWS V14.00,2013-06-01 04:33:00,
2013-06-01 00:38:00,67.4,56.9,30.12,NNW,334,0.0,0.0,69,0.00,,CLR,0.00,VWS V14.00,2013-06-01 04:38:00,
2013-06-01 00:44:00,67.4,56.9,30.12,NNW,334,0.0,0.0,69,0.00,,CLR,0.00,VWS V14.00,2013-06-01 04:44:00,
2013-06-01 00:49:00,67.2,57.1,30.12,NNW,334,0.0,0.0,70,0.00,,CLR,0.00,VWS V14.00,2013-06-01 04:49:00,
2013-06-01 00:54:00,67.0,56.9,30.12,NNW,334,0.0,0.0,70,0.00,,CLR,0.00,VWS V14.00,2013-06-01 04:54:00,
2013-06-01 00:59:00,66.8,56.7,30.12,NNW,334,0.0,0.0,70,0.00,,CLR,0.00,VWS V14.00,2013-06-01 04:59:00,
2013-06-01 01:04:00,66.6,56.5,30.12,NNW,334,0.0,0.0,70,0.00,,CLR,0.00,VWS V14.00,2013-06-01 05:04:00,
2013-06-01 01:09:00,66.1,56.8,30.12,NNW,334,0.0,0.0,72,0.00,,CLR,0.00,VWS V14.00,2013-06-01 05:09:00,
2013-06-01 01:14:00,66.1,56.8,30.12,NNW,334,0.0,0.0,72,0.00,,CLR,0.00,VWS V14.00,2013-06-01 05:14:00,
2013-06-01 01:19:00,66.1,56.8,30.12,NNW,334,0.0,0.0,72,0.00,,CLR,0.00,VWS V14.00,2013-06-01 05:19:00,
2013-06-01 01:24:00,66.1,56.8,30.12,NNW,334,0.0,0.0,72,0.00,,CLR,0.00,VWS V14.00,2013-06-01 05:24:00,
2013-06-01 01:29:00,66.1,56.8,30.12,NNW,334,0.0,0.0,72,0.00,,CLR,0.00,VWS V14.00,2013-06-01 05:29:00,
2013-06-01 01:34:00,65.9,56.6,30.12,NNW,334,0.0,0.0,72,0.00,,CLR,0.00,VWS V14.00,2013-06-01 05:34:00,
2013-06-01 01:40:00,65.7,56.8,30.12,NE,50,2.5,2.7,73,0.00,,CLR,0.00,VWS V14.00,2013-06-01 05:40:00,
2013-06-01 01:45:00,65.5,56.6,30.12,NE,50,0.0,0.0,73,0.00,,CLR,0.00,VWS V14.00,2013-06-01 05:45:00,
2013-06-01 01:50:00,65.3,56.5,30.12,NE,50,0.0,0.0,73,0.00,,CLR,0.00,VWS V14.00,2013-06-01 05:50:00,
2013-06-01 01:55:00,65.2,56.7,30.12,NE,50,0.0,0.0,74,0.00,,CLR,0.00,VWS V14.00,2013-06-01 05:55:00,
2013-06-01 02:00:00,65.2,57.0,30.12,NE,50,0.0,0.0,75,0.00,,CLR,0.00,VWS V14.00,2013-06-01 06:00:00,
2013-06-01 02:05:00,65.2,57.0,30.15,NE,50,0.0,0.0,75,0.00,,OVC080,0.00,VWS V14.00,2013-06-01 06:05:00,
2013-06-01 02:10:00,65.0,57.2,30.15,NE,50,0.0,0.0,76,0.00,,OVC080,0.00,VWS V14.00,2013-06-01 06:10:00,
2013-06-01 02:15:00,65.0,57.2,30.15,NE,50,0.0,0.0,76,0.00,,OVC080,0.00,VWS V14.00,2013-06-01 06:15:00,
2013-06-01 02:20:00,64.6,57.2,30.12,NE,50,0.0,0.0,77,0.00,,OVC080,0.00,VWS V14.00,2013-06-01 06:20:00,
2013-06-01 02:25:00,64.2,56.9,30.12,NE,50,0.0,0.0,77,0.00,,OVC080,0.00,VWS V14.00,2013-06-01 06:25:00,
2013-06-01 02:30:00,63.8,56.9,30.12,NW,325,0.0,3.2,78,0.00,,OVC080,0.00,VWS V14.00,2013-06-01 06:30:00,
2013-06-01 02:36:00,64.2,57.2,30.12,NW,325,0.0,0.0,78,0.00,,OVC080,0.00,VWS V14.00,2013-06-01 06:36:00,
2013-06-01 02:41:00,63.8,57.2,30.12,NW,325,0.0,0.0,79,0.00,,OVC080,0.00,VWS V14.00,2013-06-01 06:41:00,
2013-06-01 02:46:00,64.0,57.4,30.12,ENE,59,0.0,0.0,79,0.00,,OVC080,0.00,VWS V14.00,2013-06-01 06:46:00,
2013-06-01 02:51:00,64.0,57.4,30.12,ENE,59,0.0,0.0,79,0.00,,OVC080,0.00,VWS V14.00,2013-06-01 06:51:00,
2013-06-01 02:56:00,63.8,57.2,30.12,ENE,59,0.0,0.0,79,0.00,,OVC080,0.00,VWS V14.00,2013-06-01 06:56:00,
2013-06-01 03:01:00,63.8,57.6,30.12,ENE,59,0.0,0.0,80,0.00,,OVC080,0.00,VWS V14.00,2013-06-01 07:01:00,
2013-06-01 03:06:00,63.7,57.4,30.12,ENE,59,0.0,0.0,80,0.00,,OVC080,0.00,VWS V14.00,2013-06-01 07:06:00,
2013-06-01 03:11:00,63.7,57.7,30.12,ENE,59,0.0,0.0,81,0.00,,OVC080,0.00,VWS V14.00,2013-06-01 07:11:00,
2013-06-01 03:16:00,63.8,57.9,30.12,East,79,0.0,2.7,81,0.00,,OVC080,0.00,VWS V14.00,2013-06-01 07:16:00,
2013-06-01 03:21:00,63.7,57.7,30.12,East,79,0.0,0.0,81,0.00,,OVC080,0.00,VWS V14.00,2013-06-01 07:21:00,
2013-06-01 03:27:00,63.7,57.7,30.12,East,79,0.0,0.0,81,0.00,,OVC080,0.00,VWS V14.00,2013-06-01 07:27:00,
2013-06-01 03:32:00,63.7,57.7,30.12,East,79,3.0,3.2,81,0.00,,OVC080,0.00,VWS V14.00,2013-06-01 07:32:00,
2013-06-01 03:37:00,63.8,57.9,30.12,SE,133,0.0,0.0,81,0.00,,OVC080,0.00,VWS V14.00,2013-06-01 07:37:00,
2013-06-01 03:42:00,63.8,57.9,30.12,SE,133,2.5,2.7,81,0.00,,OVC080,0.00,VWS V14.00,2013-06-01 07:42:00,
2013-06-01 03:47:00,63.8,57.9,30.12,SW,232,0.0,0.0,81,0.00,,OVC080,0.00,VWS V14.00,2013-06-01 07:47:00,
2013-06-01 03:52:00,63.7,57.7,30.12,SW,232,0.0,0.0,81,0.00,,OVC080,0.00,VWS V14.00,2013-06-01 07:52:00,
2013-06-01 03:57:00,63.7,57.7,30.12,SW,232,0.0,0.0,81,0.00,,OVC080,0.00,VWS V14.00,2013-06-01 07:57:00,
2013-06-01 04:02:00,63.7,57.7,30.12,SW,232,2.5,2.7,81,0.00,,OVC085,0.00,VWS V14.00,2013-06-01 08:02:00,
2013-06-01 04:07:00,63.3,57.4,30.12,NNW,329,0.0,3.2,81,0.00,,OVC085,0.00,VWS V14.00,2013-06-01 08:07:00,
2013-06-01 04:12:00,63.1,57.2,30.12,NW,322,3.0,3.2,81,0.00,,OVC085,0.00,VWS V14.00,2013-06-01 08:12:00,
2013-06-01 04:18:00,62.5,57.0,30.12,NW,322,0.0,0.0,82,0.00,,OVC085,0.00,VWS V14.00,2013-06-01 08:18:00,
2013-06-01 04:23:00,62.5,57.0,30.12,NW,322,0.0,0.0,82,0.00,,OVC085,0.00,VWS V14.00,2013-06-01 08:23:00,
2013-06-01 04:28:00,62.2,57.0,30.12,NW,322,0.0,0.0,83,0.00,,OVC085,0.00,VWS V14.00,2013-06-01 08:28:00,
2013-06-01 04:33:00,62.4,57.5,30.12,NW,322,0.0,0.0,84,0.00,,OVC085,0.00,VWS V14.00,2013-06-01 08:33:00,
2013-06-01 04:38:00,62.2,57.3,30.12,NW,322,0.0,0.0,84,0.00,,OVC085,0.00,VWS V14.00,2013-06-01 08:38:00,
2013-06-01 04:43:00,62.2,57.6,30.12,NW,322,0.0,0.0,85,0.00,,OVC085,0.00,VWS V14.00,2013-06-01 08:43:00,
2013-06-01 04:48:00,62.4,57.8,30.12,NW,322,0.0,0.0,85,0.00,,OVC085,0.00,VWS V14.00,2013-06-01 08:48:00,
2013-06-01 04:53:00,62.4,58.1,30.12,NW,322,0.0,0.0,86,0.00,,OVC085,0.00,VWS V14.00,2013-06-01 08:53:00,
2013-06-01 04:58:00,62.2,58.0,30.12,NW,322,0.0,0.0,86,0.00,,OVC085,0.00,VWS V14.00,2013-06-01 08:58:00,
2013-06-01 05:03:00,62.2,58.0,30.12,NW,322,0.0,0.0,86,0.00,,OVC120,0.00,VWS V14.00,2013-06-01 09:03:00,
2013-06-01 05:09:00,62.2,58.0,30.12,NW,322,0.0,0.0,86,0.00,,OVC120,0.00,VWS V14.00,2013-06-01 09:09:00,
2013-06-01 05:14:00,62.4,58.1,30.12,NW,322,0.0,0.0,86,0.00,,OVC120,0.00,VWS V14.00,2013-06-01 09:14:00,
2013-06-01 05:19:00,62.5,58.0,30.12,NW,322,0.0,0.0,85,0.00,,OVC120,0.00,VWS V14.00,2013-06-01 09:19:00,
2013-06-01 05:24:00,62.2,58.0,30.12,NW,322,0.0,0.0,86,0.00,,OVC120,0.00,VWS V14.00,2013-06-01 09:24:00,
2013-06-01 05:29:00,61.8,57.6,30.12,NW,322,0.0,0.0,86,0.00,,OVC120,0.00,VWS V14.00,2013-06-01 09:29:00,
2013-06-01 05:34:00,62.0,58.1,30.12,NW,322,0.0,0.0,87,0.00,,OVC120,0.00,VWS V14.00,2013-06-01 09:34:00,
2013-06-01 05:39:00,62.2,58.0,30.12,NW,322,0.0,0.0,86,0.00,,OVC120,0.00,VWS V14.00,2013-06-01 09:39:00,
2013-06-01 05:44:00,62.0,57.8,30.12,NW,322,0.0,0.0,86,0.00,,OVC120,0.00,VWS V14.00,2013-06-01 09:44:00,
2013-06-01 05:49:00,62.2,57.6,30.12,NW,322,0.0,0.0,85,0.00,,OVC120,0.00,VWS V14.00,2013-06-01 09:49:00,
2013-06-01 05:54:00,62.0,57.8,30.12,NW,322,0.0,0.0,86,0.00,,OVC120,0.00,VWS V14.00,2013-06-01 09:54:00,
2013-06-01 05:59:00,62.0,57.8,30.12,NW,322,0.0,0.0,86,0.00,,OVC120,0.00,VWS V14.00,2013-06-01 09:59:00,
2013-06-01 06:05:00,61.8,57.6,30.12,NW,322,0.0,0.0,86,0.00,,OVC120,0.00,VWS V14.00,2013-06-01 10:05:00,
2013-06-01 06:10:00,62.0,58.1,30.12,NW,322,0.0,0.0,87,0.00,,OVC120,0.00,VWS V14.00,2013-06-01 10:10:00,
2013-06-01 06:15:00,62.0,58.1,30.12,NW,322,0.0,0.0,87,0.00,,OVC120,0.00,VWS V14.00,2013-06-01 10:15:00,
2013-06-01 06:20:00,61.6,57.4,30.12,NW,322,0.0,0.0,86,0.00,,CLR,0.00,VWS V14.00,2013-06-01 10:20:00,
2013-06-01 06:25:00,61.8,57.6,30.12,NW,322,0.0,0.0,86,0.00,,CLR,0.00,VWS V14.00,2013-06-01 10:25:00,
2013-06-01 06:30:00,62.0,58.1,30.12,NW,322,0.0,0.0,87,0.00,,CLR,0.00,VWS V14.00,2013-06-01 10:30:00,
2013-06-01 06:35:00,62.2,58.6,30.12,NW,322,0.0,0.0,88,0.00,,CLR,0.00,VWS V14.00,2013-06-01 10:35:00,
2013-06-01 06:40:00,62.4,58.8,30.12,NW,322,0.0,0.0,88,0.00,,CLR,0.00,VWS V14.00,2013-06-01 10:40:00,
2013-06-01 06:45:00,62.4,58.5,30.12,NW,322,0.0,0.0,87,0.00,,CLR,0.00,VWS V14.00,2013-06-01 10:45:00,
2013-06-01 06:51:00,62.4,58.1,30.12,NW,322,0.0,0.0,86,0.00,,CLR,0.00,VWS V14.00,2013-06-01 10:51:00,
2013-06-01 06:56:00,62.5,58.3,30.12,NW,322,0.0,0.0,86,0.00,,CLR,0.00,VWS V14.00,2013-06-01 10:56:00,
2013-06-01 07:01:00,62.5,58.6,30.12,NW,318,0.0,0.0,87,0.00,,CLR,0.00,VWS V14.00,2013-06-01 11:01:00,
2013-06-01 07:06:00,62.7,58.8,30.12,NW,318,0.0,0.0,87,0.00,,CLR,0.00,VWS V14.00,2013-06-01 11:06:00,
2013-06-01 07:11:00,62.9,58.7,30.12,NW,318,0.0,0.0,86,0.00,,CLR,0.00,VWS V14.00,2013-06-01 11:11:00,
2013-06-01 07:16:00,62.9,58.7,30.12,NW,318,0.0,0.0,86,0.00,,CLR,0.00,VWS V14.00,2013-06-01 11:16:00,
2013-06-01 07:21:00,62.9,58.3,30.12,NW,318,0.0,0.0,85,0.00,,CLR,0.00,VWS V14.00,2013-06-01 11:21:00,
2013-06-01 07:26:00,63.1,58.5,30.12,NW,318,0.0,0.0,85,0.00,,CLR,0.00,VWS V14.00,2013-06-01 11:26:00,
2013-06-01 07:31:00,62.5,59.0,30.12,NW,318,0.0,0.0,88,0.00,,CLR,0.00,VWS V14.00,2013-06-01 11:31:00,
2013-06-01 07:36:00,62.2,59.2,30.12,NW,318,0.0,0.0,90,0.00,,CLR,0.00,VWS V14.00,2013-06-01 11:36:00,
2013-06-01 07:42:00,62.0,59.3,30.12,NW,318,0.0,0.0,91,0.00,,CLR,0.00,VWS V14.00,2013-06-01 11:42:00,
2013-06-01 07:47:00,62.0,59.7,30.15,NW,318,0.0,0.0,92,0.00,,CLR,0.00,VWS V14.00,2013-06-01 11:47:00,
2013-06-01 07:52:00,62.2,60.1,30.15,NW,318,0.0,0.0,93,0.00,,CLR,0.00,VWS V14.00,2013-06-01 11:52:00,
2013-06-01 07:57:00,62.4,60.3,30.15,NW,318,0.0,0.0,93,0.00,,CLR,0.00,VWS V14.00,2013-06-01 11:57:00,
2013-06-01 08:02:00,62.7,61.0,30.15,NW,318,0.0,0.0,94,0.00,,CLR,0.00,VWS V14.00,2013-06-01 12:02:00,
2013-06-01 08:07:00,63.1,61.7,30.15,NW,318,0.0,0.0,95,0.00,,CLR,0.00,VWS V14.00,2013-06-01 12:07:00,
2013-06-01 08:12:00,63.5,62.0,30.15,NW,318,0.0,0.0,95,0.00,,CLR,0.00,VWS V14.00,2013-06-01 12:12:00,
2013-06-01 08:17:00,63.7,61.9,30.15,NW,318,0.0,0.0,94,0.00,,CLR,0.00,VWS V14.00,2013-06-01 12:17:00,
2013-06-01 08:22:00,64.0,62.0,30.15,NW,318,0.0,0.0,93,0.00,,CLR,0.00,VWS V14.00,2013-06-01 12:22:00,
2013-06-01 08:27:00,64.2,62.2,30.15,NW,318,0.0,0.0,93,0.00,,CLR,0.00,VWS V14.00,2013-06-01 12:27:00,
2013-06-01 08:32:00,65.2,63.1,30.15,NW,318,0.0,0.0,93,0.00,,CLR,0.00,VWS V14.00,2013-06-01 12:32:00,
2013-06-01 08:38:00,65.5,63.1,30.15,NW,318,0.0,0.0,92,0.00,,CLR,0.00,VWS V14.00,2013-06-01 12:38:00,
2013-06-01 08:43:00,65.5,62.8,30.15,NW,318,0.0,0.0,91,0.00,,CLR,0.00,VWS V14.00,2013-06-01 12:43:00,
2013-06-01 08:48:00,65.9,63.2,30.15,NW,318,0.0,0.0,91,0.00,,CLR,0.00,VWS V14.00,2013-06-01 12:48:00,
2013-06-01 08:53:00,66.1,63.4,30.15,NW,318,0.0,0.0,91,0.00,,CLR,0.00,VWS V14.00,2013-06-01 12:53:00,
2013-06-01 08:58:00,66.6,63.3,30.15,SE,129,0.0,3.2,89,0.00,,CLR,0.00,VWS V14.00,2013-06-01 12:58:00,
2013-06-01 09:03:00,67.4,62.7,30.15,SSE,154,0.0,0.0,85,0.00,,CLR,0.00,VWS V14.00,2013-06-01 13:03:00,
2013-06-01 09:08:00,67.6,61.5,30.15,SE,146,0.0,0.0,81,0.00,,CLR,0.00,VWS V14.00,2013-06-01 13:08:00,
2013-06-01 09:13:00,67.7,61.7,30.15,South,173,0.0,0.0,81,0.00,,CLR,0.00,VWS V14.00,2013-06-01 13:13:00,
2013-06-01 09:18:00,67.9,62.2,30.12,SSE,149,3.9,4.8,82,0.00,,CLR,0.00,VWS V14.00,2013-06-01 13:18:00,
2013-06-01 09:23:00,68.5,62.1,30.12,South,170,2.5,2.7,80,0.00,,CLR,0.00,VWS V14.00,2013-06-01 13:23:00,
2013-06-01 09:29:00,68.8,62.1,30.12,WSW,237,0.0,0.0,79,0.00,,CLR,0.00,VWS V14.00,2013-06-01 13:29:00,
2013-06-01 09:34:00,69.0,61.9,30.12,SE,130,0.0,0.0,78,0.00,,CLR,0.00,VWS V14.00,2013-06-01 13:34:00,
2013-06-01 09:39:00,69.8,61.9,30.12,South,171,3.0,3.8,76,0.00,,CLR,0.00,VWS V14.00,2013-06-01 13:39:00,
2013-06-01 09:44:00,70.2,61.5,30.12,South,171,0.0,3.8,74,0.00,,CLR,0.00,VWS V14.00,2013-06-01 13:44:00,
2013-06-01 09:49:00,70.5,61.1,30.12,South,180,4.4,4.8,72,0.00,,CLR,0.00,VWS V14.00,2013-06-01 13:49:00,
2013-06-01 09:54:00,71.1,61.2,30.12,South,190,3.9,4.8,71,0.00,,CLR,0.00,VWS V14.00,2013-06-01 13:54:00,
2013-06-01 09:59:00,71.1,61.2,30.12,SSW,197,3.0,3.2,71,0.00,,CLR,0.00,VWS V14.00,2013-06-01 13:59:00,
2013-06-01 10:04:00,71.8,61.1,30.12,SSW,203,3.4,4.8,69,0.00,,CLR,0.00,VWS V14.00,2013-06-01 14:04:00,
2013-06-01 10:09:00,71.8,60.3,30.12,South,186,3.4,3.8,67,0.00,,CLR,0.00,VWS V14.00,2013-06-01 14:09:00,
2013-06-01 10:14:00,72.6,60.1,30.12,South,170,3.0,7.5,65,0.00,,CLR,0.00,VWS V14.00,2013-06-01 14:14:00,
2013-06-01 10:19:00,73.1,60.7,30.12,South,183,3.9,4.8,65,0.00,,CLR,0.00,VWS V14.00,2013-06-01 14:19:00,
2013-06-01 10:24:00,73.3,60.4,30.12,South,169,3.0,4.3,64,0.00,,CLR,0.00,VWS V14.00,2013-06-01 14:24:00,
2013-06-01 10:29:00,73.5,60.1,30.12,WSW,251,4.4,5.9,63,0.00,,CLR,0.00,VWS V14.00,2013-06-01 14:29:00,
2013-06-01 10:35:00,74.1,60.7,30.12,WSW,256,5.4,7.0,63,0.00,,CLR,0.00,VWS V14.00,2013-06-01 14:35:00,
2013-06-01 10:40:00,74.6,60.3,30.12,WSW,256,5.9,6.4,61,0.00,,CLR,0.00,VWS V14.00,2013-06-01 14:40:00,
2013-06-01 10:45:00,74.8,60.5,30.12,South,177,3.4,4.8,61,0.00,,CLR,0.00,VWS V14.00,2013-06-01 14:45:00,
2013-06-01 10:50:00,74.6,59.3,30.09,SSE,163,3.0,3.8,59,0.00,,CLR,0.00,VWS V14.00,2013-06-01 14:50:00,
2013-06-01 10:55:00,75.3,60.0,30.09,SW,228,3.4,3.8,59,0.00,,CLR,0.00,VWS V14.00,2013-06-01 14:55:00,
2013-06-01 11:00:00,75.7,60.4,30.09,WSW,249,3.9,4.3,59,0.00,,CLR,0.00,VWS V14.00,2013-06-01 15:00:00,
2013-06-01 11:05:00,75.9,59.1,30.09,SSW,207,3.4,4.8,56,0.00,,CLR,0.00,VWS V14.00,2013-06-01 15:05:00,
2013-06-01 11:10:00,76.1,59.8,30.09,SSE,154,6.4,7.0,57,0.00,,CLR,0.00,VWS V14.00,2013-06-01 15:10:00,
2013-06-01 11:15:00,76.6,58.8,30.09,SSE,151,6.4,7.0,54,0.00,,CLR,0.00,VWS V14.00,2013-06-01 15:15:00,
2013-06-01 11:20:00,77.0,59.1,30.09,WNW,283,6.4,7.0,54,0.00,,CLR,0.00,VWS V14.00,2013-06-01 15:20:00,
2013-06-01 11:26:00,77.4,59.5,30.09,SSW,195,5.9,7.5,54,0.00,,CLR,0.00,VWS V14.00,2013-06-01 15:26:00,
2013-06-01 11:31:00,77.6,57.5,30.09,SSE,163,6.9,7.5,50,0.00,,CLR,0.00,VWS V14.00,2013-06-01 15:31:00,
2013-06-01 11:36:00,77.8,57.7,30.09,SW,215,5.9,6.4,50,0.00,,CLR,0.00,VWS V14.00,2013-06-01 15:36:00,
2013-06-01 11:41:00,78.1,58.0,30.09,SSW,201,3.4,4.3,50,0.00,,CLR,0.00,VWS V14.00,2013-06-01 15:41:00,
2013-06-01 11:46:00,78.5,58.3,30.09,SSE,166,6.9,8.6,50,0.00,,CLR,0.00,VWS V14.00,2013-06-01 15:46:00,
2013-06-01 11:51:00,78.5,58.3,30.09,SE,131,5.9,6.4,50,0.00,,CLR,0.00,VWS V14.00,2013-06-01 15:51:00,
2013-06-01 11:56:00,78.9,59.2,30.09,South,177,6.9,13.2,51,0.00,,CLR,0.00,VWS V14.00,2013-06-01 15:56:00,
2013-06-01 12:01:00,79.2,59.0,30.09,SSE,168,3.4,7.5,50,0.00,,CLR,0.00,VWS V14.00,2013-06-01 16:01:00,
2013-06-01 12:06:00,79.4,59.2,30.09,WSW,246,3.9,7.0,50,0.00,,CLR,0.00,VWS V14.00,2013-06-01 16:06:00,
2013-06-01 12:11:00,79.6,58.8,30.09,SSE,167,5.9,7.0,49,0.00,,CLR,0.00,VWS V14.00,2013-06-01 16:11:00,
2013-06-01 12:16:00,79.6,58.8,30.09,South,174,4.4,7.5,49,0.00,,CLR,0.00,VWS V14.00,2013-06-01 16:16:00,
2013-06-01 12:22:00,80.0,59.7,30.09,SSE,159,6.4,10.5,50,0.00,,CLR,0.00,VWS V14.00,2013-06-01 16:22:00,
2013-06-01 12:27:00,80.2,59.9,30.09,South,181,8.4,9.1,50,0.00,,CLR,0.00,VWS V14.00,2013-06-01 16:27:00,
2013-06-01 12:32:00,80.3,59.5,30.09,SSE,154,9.1,9.9,49,0.00,,CLR,0.00,VWS V14.00,2013-06-01 16:32:00,
2013-06-01 12:37:00,80.5,58.5,30.09,South,186,9.1,10.5,47,0.00,,CLR,0.00,VWS V14.00,2013-06-01 16:37:00,
2013-06-01 12:42:00,80.7,58.6,30.09,South,176,8.9,9.7,47,0.00,,CLR,0.00,VWS V14.00,2013-06-01 16:42:00,
2013-06-01 12:47:00,80.9,58.8,30.09,SE,126,8.9,9.7,47,0.00,,CLR,0.00,VWS V14.00,2013-06-01 16:47:00,
2013-06-01 12:52:00,81.1,58.4,30.09,SE,134,3.0,6.4,46,0.00,,CLR,0.00,VWS V14.00,2013-06-01 16:52:00,
2013-06-01 12:57:00,81.7,59.5,30.09,SSE,161,6.4,7.0,47,0.00,,CLR,0.00,VWS V14.00,2013-06-01 16:57:00,
2013-06-01 13:02:00,81.7,57.6,30.09,SSE,159,3.0,4.8,44,0.00,,FEW049,0.00,VWS V14.00,2013-06-01 17:02:00,
2013-06-01 13:07:00,82.2,58.8,30.09,SSE,166,6.9,9.1,45,0.00,,FEW049,0.00,VWS V14.00,2013-06-01 17:07:00,
2013-06-01 13:13:00,82.6,59.7,30.09,SE,140,5.4,7.0,46,0.00,,FEW049,0.00,VWS V14.00,2013-06-01 17:13:00,
2013-06-01 13:18:00,82.8,59.3,30.09,ESE,115,5.4,9.7,45,0.00,,FEW049,0.00,VWS V14.00,2013-06-01 17:18:00,
2013-06-01 13:23:00,83.1,59.6,30.09,SSE,167,4.4,5.9,45,0.00,,FEW049,0.00,VWS V14.00,2013-06-01 17:23:00,
2013-06-01 13:28:00,83.9,59.7,30.09,West,260,3.0,8.1,44,0.00,,FEW049,0.00,VWS V14.00,2013-06-01 17:28:00,
2013-06-01 13:33:00,83.7,58.2,30.09,SSW,193,8.4,10.5,42,0.00,,FEW049,0.00,VWS V14.00,2013-06-01 17:33:00,
2013-06-01 13:38:00,84.1,57.8,30.09,South,189,5.9,9.1,41,0.00,,FEW049,0.00,VWS V14.00,2013-06-01 17:38:00,
2013-06-01 13:43:00,84.2,58.0,30.09,ESE,115,9.1,11.0,41,0.00,,FEW049,0.00,VWS V14.00,2013-06-01 17:43:00,
2013-06-01 13:48:00,84.4,58.2,30.06,South,183,3.9,9.1,41,0.00,,FEW049,0.00,VWS V14.00,2013-06-01 17:48:00,
2013-06-01 13:53:00,84.6,57.0,30.06,SE,135,9.6,10.5,39,0.00,,FEW049,0.00,VWS V14.00,2013-06-01 17:53:00,
2013-06-01 13:58:00,85.2,58.8,30.06,SW,228,6.4,8.1,41,0.00,,FEW049,0.00,VWS V14.00,2013-06-01 17:58:00,
2013-06-01 14:03:00,85.7,57.2,30.06,West,259,5.9,10.5,38,0.00,,SCT095,0.00,VWS V14.00,2013-06-01 18:03:00,
2013-06-01 14:08:00,85.7,56.5,30.06,SW,217,11.6,13.2,37,0.00,,SCT095,0.00,VWS V14.00,2013-06-01 18:08:00,
2013-06-01 14:13:00,85.7,57.9,30.06,SSW,195,9.1,9.9,39,0.00,,SCT095,0.00,VWS V14.00,2013-06-01 18:13:00,
2013-06-01 14:18:00,85.9,56.6,30.06,South,180,6.9,10.5,37,0.00,,SCT095,0.00,VWS V14.00,2013-06-01 18:18:00,
2013-06-01 14:23:00,85.7,55.7,30.06,South,178,9.1,10.5,36,0.00,,SCT095,0.00,VWS V14.00,2013-06-01 18:23:00,
2013-06-01 14:29:00,85.7,55.0,30.06,WSW,243,6.4,9.9,35,0.00,,SCT095,0.00,VWS V14.00,2013-06-01 18:29:00,
2013-06-01 14:34:00,85.9,55.9,30.06,SSW,202,9.1,9.9,36,0.00,,SCT095,0.00,VWS V14.00,2013-06-01 18:34:00,
2013-06-01 14:39:00,86.7,56.5,30.06,SW,224,6.9,7.5,36,0.00,,SCT095,0.00,VWS V14.00,2013-06-01 18:39:00,
2013-06-01 14:44:00,86.8,57.5,30.06,SW,231,5.9,6.4,37,0.00,,SCT095,0.00,VWS V14.00,2013-06-01 18:44:00,
2013-06-01 14:49:00,87.0,55.3,30.06,SSW,202,6.4,12.1,34,0.00,,SCT095,0.00,VWS V14.00,2013-06-01 18:49:00,
2013-06-01 14:54:00,87.0,56.1,30.06,SSW,212,8.9,9.7,35,0.00,,SCT095,0.00,VWS V14.00,2013-06-01 18:54:00,
2013-06-01 14:59:00,87.2,56.2,30.06,South,185,9.6,12.6,35,0.00,,SCT095,0.00,VWS V14.00,2013-06-01 18:59:00,
2013-06-01 15:04:00,87.2,54.6,30.06,South,190,5.9,13.2,33,0.00,,SCT100,0.00,VWS V14.00,2013-06-01 19:04:00,
2013-06-01 15:09:00,87.6,55.0,30.06,SSE,157,5.4,11.5,33,0.00,,SCT100,0.00,VWS V14.00,2013-06-01 19:09:00,
2013-06-01 15:14:00,87.2,55.5,30.06,West,277,3.9,7.0,34,0.00,,SCT100,0.00,VWS V14.00,2013-06-01 19:14:00,
2013-06-01 15:19:00,87.9,56.1,30.06,SSE,164,6.4,11.5,34,0.00,,SCT100,0.00,VWS V14.00,2013-06-01 19:19:00,
2013-06-01 15:25:00,87.6,55.0,30.06,South,186,6.9,12.1,33,0.00,,SCT100,0.00,VWS V14.00,2013-06-01 19:25:00,
2013-06-01 15:30:00,87.8,54.3,30.06,SSE,165,9.1,9.9,32,0.00,,SCT100,0.00,VWS V14.00,2013-06-01 19:30:00,
2013-06-01 15:35:00,88.1,56.3,30.03,SW,217,9.1,9.9,34,0.00,,SCT100,0.00,VWS V14.00,2013-06-01 19:35:00,
2013-06-01 15:40:00,88.1,55.4,30.03,SSW,206,5.4,7.5,33,0.00,,SCT100,0.00,VWS V14.00,2013-06-01 19:40:00,
2013-06-01 15:45:00,88.7,57.5,30.03,SSE,148,8.4,9.1,35,0.00,,SCT100,0.00,VWS V14.00,2013-06-01 19:45:00,
2013-06-01 15:50:00,88.7,55.9,30.03,ESE,116,6.9,12.6,33,0.00,,SCT100,0.00,VWS V14.00,2013-06-01 19:50:00,
2013-06-01 15:55:00,88.7,56.8,30.03,SE,131,6.4,9.9,34,0.00,,SCT100,0.00,VWS V14.00,2013-06-01 19:55:00,
2013-06-01 16:00:00,87.6,55.0,30.03,SSW,206,5.9,9.7,33,0.00,,SCT100,0.00,VWS V14.00,2013-06-01 20:00:00,
2013-06-01 16:05:00,87.4,55.6,30.03,SW,226,5.9,8.1,34,0.00,,FEW050,0.00,VWS V14.00,2013-06-01 20:05:00,
2013-06-01 16:10:00,88.1,56.3,30.03,SW,221,5.9,11.5,34,0.00,,FEW050,0.00,VWS V14.00,2013-06-01 20:10:00,
2013-06-01 16:16:00,87.4,54.8,30.03,South,187,5.9,7.0,33,0.00,,FEW050,0.00,VWS V14.00,2013-06-01 20:16:00,
2013-06-01 16:21:00,86.8,54.3,30.03,SW,216,11.6,12.6,33,0.00,,FEW050,0.00,VWS V14.00,2013-06-01 20:21:00,
2013-06-01 16:26:00,85.9,54.3,30.03,SSW,202,5.9,7.0,34,0.00,,FEW050,0.00,VWS V14.00,2013-06-01 20:26:00,
2013-06-01 16:31:00,85.0,55.1,30.03,WSW,241,3.0,4.8,36,0.00,,FEW050,0.00,VWS V14.00,2013-06-01 20:31:00,
2013-06-01 16:36:00,84.4,54.6,30.03,SSW,206,3.9,9.1,36,0.00,,FEW050,0.00,VWS V14.00,2013-06-01 20:36:00,
2013-06-01 16:41:00,84.1,55.7,30.03,SSW,194,3.9,4.3,38,0.00,,FEW050,0.00,VWS V14.00,2013-06-01 20:41:00,
2013-06-01 16:46:00,83.5,56.7,30.03,ESE,122,3.0,3.2,40,0.00,,FEW050,0.00,VWS V14.00,2013-06-01 20:46:00,
2013-06-01 16:51:00,83.3,57.2,30.03,South,173,3.4,3.8,41,0.00,,FEW050,0.00,VWS V14.00,2013-06-01 20:51:00,
2013-06-01 16:56:00,82.8,57.3,30.03,ESE,122,5.9,7.5,42,0.00,,FEW050,0.00,VWS V14.00,2013-06-01 20:56:00,
2013-06-01 17:02:00,82.9,58.2,30.03,SW,224,4.4,4.8,43,0.00,,FEW050,0.00,VWS V14.00,2013-06-01 21:02:00,
2013-06-01 17:07:00,83.9,59.7,30.03,SSE,163,6.4,7.0,44,0.00,,FEW055,0.00,VWS V14.00,2013-06-01 21:07:00,
2013-06-01 17:12:00,84.2,59.3,30.03,SSW,205,6.4,7.5,43,0.00,,FEW055,0.00,VWS V14.00,2013-06-01 21:12:00,
2013-06-01 17:17:00,83.9,59.0,30.03,SE,145,4.4,6.4,43,0.00,,FEW055,0.00,VWS V14.00,2013-06-01 21:17:00,
2013-06-01 17:22:00,84.1,59.8,30.03,SSE,152,5.4,10.5,44,0.00,,FEW055,0.00,VWS V14.00,2013-06-01 21:22:00,
2013-06-01 17:27:00,83.3,59.8,30.03,South,181,3.0,7.5,45,0.00,,FEW055,0.00,VWS V14.00,2013-06-01 21:27:00,
2013-06-01 17:32:00,83.5,60.0,30.03,South,186,6.4,11.5,45,0.00,,FEW055,0.00,VWS V14.00,2013-06-01 21:32:00,
2013-06-01 17:37:00,83.9,59.0,30.03,SSE,157,3.9,7.5,43,0.00,,FEW055,0.00,VWS V14.00,2013-06-01 21:37:00,
2013-06-01 17:42:00,83.7,58.2,30.03,WNW,299,4.9,12.1,42,0.00,,FEW055,0.00,VWS V14.00,2013-06-01 21:42:00,
2013-06-01 17:47:00,83.7,58.2,30.03,SSE,157,8.9,9.7,42,0.00,,FEW055,0.00,VWS V14.00,2013-06-01 21:47:00,
2013-06-01 17:53:00,83.3,58.5,30.03,SSW,197,6.9,9.9,43,0.00,,FEW055,0.00,VWS V14.00,2013-06-01 21:53:00,
2013-06-01 17:58:00,83.7,58.8,30.03,SW,218,4.4,9.7,43,0.00,,FEW055,0.00,VWS V14.00,2013-06-01 21:58:00,
2013-06-01 18:03:00,83.1,59.0,30.03,South,189,2.5,5.9,44,0.00,,FEW055,0.00,VWS V14.00,2013-06-01 22:03:00,
2013-06-01 18:08:00,83.3,59.2,30.03,SW,219,6.9,9.7,44,0.00,,SCT055,0.00,VWS V14.00,2013-06-01 22:08:00,
2013-06-01 18:13:00,83.1,59.6,30.03,SSW,208,3.4,3.8,45,0.00,,SCT055,0.00,VWS V14.00,2013-06-01 22:13:00,
2013-06-01 18:18:00,82.4,57.7,30.03,South,182,6.4,7.0,43,0.00,,SCT055,0.00,VWS V14.00,2013-06-01 22:18:00,
2013-06-01 18:23:00,82.4,58.3,30.03,SW,223,10.6,11.5,44,0.00,,SCT055,0.00,VWS V14.00,2013-06-01 22:23:00,
2013-06-01 18:28:00,82.2,58.8,30.03,SSE,163,5.4,10.5,45,0.00,,SCT055,0.00,VWS V14.00,2013-06-01 22:28:00,
2013-06-01 18:33:00,81.5,58.1,30.03,South,190,5.4,9.9,45,0.00,,SCT055,0.00,VWS V14.00,2013-06-01 22:33:00,
2013-06-01 18:38:00,81.1,57.8,30.03,South,182,6.9,8.6,45,0.00,,SCT055,0.00,VWS V14.00,2013-06-01 22:38:00,
2013-06-01 18:43:00,81.1,58.4,30.03,WSW,258,4.4,9.1,46,0.00,,SCT055,0.00,VWS V14.00,2013-06-01 22:43:00,
2013-06-01 18:48:00,81.1,58.4,30.03,SW,232,8.4,9.1,46,0.00,,SCT055,0.00,VWS V14.00,2013-06-01 22:48:00,
2013-06-01 18:54:00,80.9,58.2,30.03,SSE,154,6.9,11.5,46,0.00,,SCT055,0.00,VWS V14.00,2013-06-01 22:54:00,
2013-06-01 18:59:00,80.7,58.0,30.03,SSW,212,5.9,9.9,46,0.00,,SCT055,0.00,VWS V14.00,2013-06-01 22:59:00,
2013-06-01 19:04:00,80.3,57.1,30.03,SSE,153,6.4,9.9,45,0.00,,CLR,0.00,VWS V14.00,2013-06-01 23:04:00,
2013-06-01 19:09:00,80.2,56.9,30.03,South,189,9.1,11.0,45,0.00,,CLR,0.00,VWS V14.00,2013-06-01 23:09:00,
2013-06-01 19:14:00,80.2,56.9,30.03,SSW,200,3.9,4.8,45,0.00,,CLR,0.00,VWS V14.00,2013-06-01 23:14:00,
2013-06-01 19:19:00,80.0,57.4,30.03,SSW,212,4.4,7.5,46,0.00,,CLR,0.00,VWS V14.00,2013-06-01 23:19:00,
2013-06-01 19:24:00,80.0,58.0,30.03,WSW,247,4.4,4.8,47,0.00,,CLR,0.00,VWS V14.00,2013-06-01 23:24:00,
2013-06-01 19:29:00,80.2,57.5,30.03,WSW,254,3.4,6.4,46,0.00,,CLR,0.00,VWS V14.00,2013-06-01 23:29:00,
2013-06-01 19:34:00,80.0,58.5,30.03,SSW,204,5.4,5.9,48,0.00,,CLR,0.00,VWS V14.00,2013-06-01 23:34:00,
2013-06-01 19:39:00,80.0,58.5,30.03,SSW,203,2.5,4.3,48,0.00,,CLR,0.00,VWS V14.00,2013-06-01 23:39:00,
2013-06-01 19:44:00,79.6,58.2,30.03,SSW,195,3.9,5.9,48,0.00,,CLR,0.00,VWS V14.00,2013-06-01 23:44:00,
2013-06-01 19:50:00,79.2,58.5,30.03,South,182,3.4,3.8,49,0.00,,CLR,0.00,VWS V14.00,2013-06-01 23:50:00,
2013-06-01 19:55:00,79.1,58.3,30.03,SSW,209,3.9,5.9,49,0.00,,CLR,0.00,VWS V14.00,2013-06-01 23:55:00,
2013-06-01 20:00:00,78.7,58.5,30.03,WSW,250,3.4,3.8,50,0.00,,CLR,0.00,VWS V14.00,2013-06-02 00:00:00,
2013-06-01 20:05:00,78.5,58.3,30.03,SW,221,3.4,3.8,50,0.00,,FEW060,0.00,VWS V14.00,2013-06-02 00:05:00,
2013-06-01 20:10:00,78.1,58.5,30.03,WSW,246,0.0,2.7,51,0.00,,FEW060,0.00,VWS V14.00,2013-06-02 00:10:00,
2013-06-01 20:15:00,77.8,58.7,30.03,SSW,195,0.0,0.0,52,0.00,,FEW060,0.00,VWS V14.00,2013-06-02 00:15:00,
2013-06-01 20:20:00,77.6,58.6,30.00,SSW,195,2.5,2.7,52,0.00,,FEW060,0.00,VWS V14.00,2013-06-02 00:20:00,
2013-06-01 20:25:00,77.4,58.4,30.00,SE,136,0.0,2.7,52,0.00,,FEW060,0.00,VWS V14.00,2013-06-02 00:25:00,
2013-06-01 20:30:00,77.0,58.6,30.00,SSE,167,0.0,3.2,53,0.00,,FEW060,0.00,VWS V14.00,2013-06-02 00:30:00,
2013-06-01 20:35:00,76.8,58.9,30.00,SE,142,3.4,3.8,54,0.00,,FEW060,0.00,VWS V14.00,2013-06-02 00:35:00,
2013-06-01 20:40:00,76.6,59.3,30.00,South,175,3.0,3.8,55,0.00,,FEW060,0.00,VWS V14.00,2013-06-02 00:40:00,
2013-06-01 20:45:00,76.5,59.6,30.00,East,98,2.5,4.8,56,0.00,,FEW060,0.00,VWS V14.00,2013-06-02 00:45:00,
2013-06-01 20:50:00,76.3,60.4,30.00,SSW,194,3.4,4.3,58,0.00,,FEW060,0.00,VWS V14.00,2013-06-02 00:50:00,
2013-06-01 20:55:00,75.9,60.1,30.00,South,176,0.0,0.0,58,0.00,,FEW060,0.00,VWS V14.00,2013-06-02 00:55:00,
2013-06-01 21:01:00,75.5,60.2,30.00,SSW,194,0.0,0.0,59,0.00,,FEW060,0.00,VWS V14.00,2013-06-02 01:01:00,
2013-06-01 21:06:00,75.3,60.0,30.03,SSW,199,0.0,2.7,59,0.00,,CLR,0.00,VWS V14.00,2013-06-02 01:06:00,
2013-06-01 21:11:00,75.0,60.6,30.03,South,173,0.0,0.0,61,0.00,,CLR,0.00,VWS V14.00,2013-06-02 01:11:00,
2013-06-01 21:16:00,74.8,60.5,30.03,SW,216,0.0,0.0,61,0.00,,CLR,0.00,VWS V14.00,2013-06-02 01:16:00,
2013-06-01 21:21:00,74.8,60.5,30.03,SW,221,3.0,3.2,61,0.00,,CLR,0.00,VWS V14.00,2013-06-02 01:21:00,
2013-06-01 21:26:00,74.2,60.4,30.03,SW,217,0.0,0.0,62,0.00,,CLR,0.00,VWS V14.00,2013-06-02 01:26:00,
2013-06-01 21:31:00,73.7,59.9,30.03,SSW,209,0.0,0.0,62,0.00,,CLR,0.00,VWS V14.00,2013-06-02 01:31:00,
2013-06-01 21:36:00,73.5,60.1,30.03,SSW,209,0.0,0.0,63,0.00,,CLR,0.00,VWS V14.00,2013-06-02 01:36:00,
2013-06-01 21:41:00,73.5,60.1,30.03,SSW,205,0.0,0.0,63,0.00,,CLR,0.00,VWS V14.00,2013-06-02 01:41:00,
2013-06-01 21:46:00,72.9,60.0,30.03,WSW,258,0.0,0.0,64,0.00,,CLR,0.00,VWS V14.00,2013-06-02 01:46:00,
2013-06-01 21:51:00,72.8,60.3,30.03,SSW,193,0.0,0.0,65,0.00,,CLR,0.00,VWS V14.00,2013-06-02 01:51:00,
2013-06-01 21:57:00,72.8,59.9,30.03,SSW,202,2.5,4.8,64,0.00,,CLR,0.00,VWS V14.00,2013-06-02 01:57:00,
2013-06-01 22:02:00,72.9,59.6,30.03,WSW,247,0.0,0.0,63,0.00,,CLR,0.00,VWS V14.00,2013-06-02 02:02:00,
2013-06-01 22:07:00,72.9,59.6,30.03,South,184,0.0,0.0,63,0.00,,CLR,0.00,VWS V14.00,2013-06-02 02:07:00,
2013-06-01 22:12:00,72.9,59.2,30.03,SSW,195,4.4,4.8,62,0.00,,CLR,0.00,VWS V14.00,2013-06-02 02:12:00,
2013-06-01 22:17:00,73.1,58.9,30.03,SSE,164,0.0,0.0,61,0.00,,CLR,0.00,VWS V14.00,2013-06-02 02:17:00,
2013-06-01 22:22:00,73.3,58.6,30.03,South,179,0.0,3.2,60,0.00,,CLR,0.00,VWS V14.00,2013-06-02 02:22:00,
2013-06-01 22:27:00,73.3,58.1,30.03,SSW,198,3.0,3.8,59,0.00,,CLR,0.00,VWS V14.00,2013-06-02 02:27:00,
2013-06-01 22:32:00,72.2,58.9,30.03,NW,307,3.0,3.8,63,0.00,,CLR,0.00,VWS V14.00,2013-06-02 02:32:00,
2013-06-01 22:38:00,71.6,59.3,30.03,NW,321,0.0,0.0,65,0.00,,CLR,0.00,VWS V14.00,2013-06-02 02:38:00,
2013-06-01 22:43:00,71.6,59.7,30.03,NW,321,3.0,3.2,66,0.00,,CLR,0.00,VWS V14.00,2013-06-02 02:43:00,
2013-06-01 22:48:00,71.6,59.7,30.03,NW,316,0.0,0.0,66,0.00,,CLR,0.00,VWS V14.00,2013-06-02 02:48:00,
2013-06-01 22:53:00,71.6,59.7,30.03,North,9,0.0,0.0,66,0.00,,CLR,0.00,VWS V14.00,2013-06-02 02:53:00,
2013-06-01 22:58:00,71.8,59.0,30.03,SW,215,3.0,3.8,64,0.00,,CLR,0.00,VWS V14.00,2013-06-02 02:58:00,
2013-06-01 23:03:00,72.0,58.3,30.03,SE,128,3.4,3.8,62,0.00,,CLR,0.00,VWS V14.00,2013-06-02 03:03:00,
2013-06-01 23:08:00,72.0,58.3,30.03,SSE,164,0.0,2.7,62,0.00,,CLR,0.00,VWS V14.00,2013-06-02 03:08:00,
2013-06-01 23:13:00,72.2,58.0,30.03,SE,142,0.0,2.7,61,0.00,,CLR,0.00,VWS V14.00,2013-06-02 03:13:00,
2013-06-01 23:19:00,72.0,57.8,30.03,SSW,200,0.0,0.0,61,0.00,,CLR,0.00,VWS V14.00,2013-06-02 03:19:00,
2013-06-01 23:24:00,71.8,57.7,30.03,SE,138,0.0,3.2,61,0.00,,CLR,0.00,VWS V14.00,2013-06-02 03:24:00,
2013-06-01 23:29:00,71.6,57.5,30.03,SE,137,0.0,0.0,61,0.00,,CLR,0.00,VWS V14.00,2013-06-02 03:29:00,
2013-06-01 23:34:00,71.6,57.5,30.03,SW,230,0.0,0.0,61,0.00,,CLR,0.00,VWS V14.00,2013-06-02 03:34:00,
2013-06-01 23:39:00,71.3,58.0,30.03,SSW,203,0.0,0.0,63,0.00,,CLR,0.00,VWS V14.00,2013-06-02 03:39:00,
2013-06-01 23:44:00,71.3,57.6,30.03,SSE,164,0.0,0.0,62,0.00,,CLR,0.00,VWS V14.00,2013-06-02 03:44:00,
2013-06-01 23:49:00,71.3,57.6,30.03,SSE,163,0.0,0.0,62,0.00,,CLR,0.00,VWS V14.00,2013-06-02 03:49:00,
2013-06-01 23:54:00,71.3,57.6,30.03,SE,131,0.0,0.0,62,0.00,,CLR,0.00,VWS V14.00,2013-06-02 03:54:00,
2013-06-01 23:59:00,71.1,57.4,30.03,SW,220,2.5,3.2,62,0.00,,CLR,0.00,VWS V14.00,2013-06-02 03:59:00,